createdAt,value
2022-09-26T00:01:26.995Z,7.72
2022-09-26T00:03:59.858Z,7.55
2022-09-26T00:06:26.899Z,7.46
2022-09-26T00:08:54.098Z,7.47
2022-09-26T00:11:26.991Z,7.29
2022-09-26T00:13:56.731Z,7.20
2022-09-26T00:16:23.306Z,7.14
2022-09-26T00:18:51.782Z,7.10
2022-09-26T00:21:19.163Z,7.19
2022-09-26T00:23:47.562Z,6.60
2022-09-26T00:26:16.110Z,6.96
2022-09-26T00:28:42.699Z,6.96
2022-09-26T00:31:12.889Z,6.94
2022-09-26T00:33:39.481Z,6.91
2022-09-26T00:36:06.676Z,6.77
2022-09-26T00:38:33.496Z,6.81
2022-09-26T00:41:00.048Z,6.79
2022-09-26T00:43:33.690Z,6.77
2022-09-26T00:46:06.467Z,6.87
2022-09-26T00:48:35.812Z,6.80
2022-09-26T00:51:03.144Z,6.64
2022-09-26T00:53:35.563Z,6.50
2022-09-26T00:56:09.371Z,6.55
2022-09-26T00:58:40.956Z,6.71
2022-09-26T01:01:07.951Z,6.63
2022-09-26T01:03:36.150Z,6.74
2022-09-26T01:06:02.736Z,6.88
2022-09-26T01:08:34.854Z,6.81
2022-09-26T01:11:02.404Z,6.78
2022-09-26T01:13:32.982Z,6.60
2022-09-26T01:15:59.371Z,6.88
2022-09-26T01:18:26.605Z,6.87
2022-09-26T01:21:11.871Z,5.69
2022-09-26T01:24:16.605Z,6.74
2022-09-26T01:26:58.183Z,6.82
2022-09-26T01:30:05.383Z,6.80
2022-09-26T01:32:57.123Z,6.84
2022-09-26T01:35:26.896Z,6.74
2022-09-26T01:38:21.432Z,6.76
2022-09-26T01:41:08.054Z,6.68
2022-09-26T01:43:41.542Z,6.49
2022-09-26T01:46:29.206Z,6.57
2022-09-26T01:49:05.563Z,6.27
2022-09-26T01:51:48.848Z,6.32
2022-09-26T01:54:23.318Z,6.03
2022-09-26T01:56:53.093Z,6.12
2022-09-26T01:59:30.328Z,6.12
2022-09-26T02:02:06.807Z,6.20
2022-09-26T02:04:38.626Z,6.14
2022-09-26T02:07:16.669Z,6.19
2022-09-26T02:09:52.159Z,6.22
2022-09-26T02:12:26.125Z,6.31
2022-09-26T02:14:56.152Z,6.15
2022-09-26T02:17:28.333Z,6.18
2022-09-26T02:19:56.304Z,6.09
2022-09-26T02:22:28.950Z,6.17
2022-09-26T02:24:55.388Z,6.09
2022-09-26T02:27:22.053Z,6.12
2022-09-26T02:29:48.476Z,6.14
2022-09-26T02:32:26.983Z,5.99
2022-09-26T02:34:55.531Z,5.99
2022-09-26T02:37:24.142Z,5.79
2022-09-26T02:39:52.588Z,5.93
2022-09-26T02:42:36.472Z,5.95
2022-09-26T02:45:41.714Z,5.96
2022-09-26T02:48:23.591Z,5.93
2022-09-26T02:51:01.810Z,6.04
2022-09-26T02:53:37.737Z,6.00
2022-09-26T02:56:11.286Z,5.82
2022-09-26T02:58:53.757Z,5.86
2022-09-26T03:01:53.922Z,5.96
2022-09-26T03:04:24.127Z,5.83
2022-09-26T03:06:55.785Z,5.69
2022-09-26T03:09:24.919Z,5.87
2022-09-26T03:11:53.573Z,5.80
2022-09-26T03:14:21.109Z,5.82
2022-09-26T03:16:49.418Z,5.80
2022-09-26T03:19:23.614Z,5.66
2022-09-26T03:21:50.668Z,5.70
2022-09-26T03:24:17.387Z,5.60
2022-09-26T03:26:45.242Z,5.68
2022-09-26T03:29:11.692Z,5.59
2022-09-26T03:31:38.375Z,5.64
2022-09-26T03:34:06.360Z,5.62
2022-09-26T03:36:32.883Z,5.60
2022-09-26T03:39:01.779Z,5.52
2022-09-26T03:41:57.525Z,5.58
2022-09-26T03:44:29.501Z,5.67
2022-09-26T03:47:02.304Z,5.49
2022-09-26T03:49:29.074Z,5.33
2022-09-26T03:51:55.530Z,5.44
2022-09-26T03:54:21.953Z,5.18
2022-09-26T03:56:48.784Z,5.25
2022-09-26T03:59:16.759Z,5.29
2022-09-26T04:01:44.941Z,5.46
2022-09-26T04:04:15.123Z,4.80
2022-09-26T04:06:44.711Z,5.48
2022-09-26T04:09:16.605Z,5.52
2022-09-26T04:11:46.604Z,5.35
2022-09-26T04:14:13.140Z,5.53
2022-09-26T04:16:40.528Z,5.51
2022-09-26T04:19:15.365Z,5.49
2022-09-26T04:21:42.288Z,5.54
2022-09-26T04:24:14.452Z,5.54
2022-09-26T04:26:42.063Z,5.51
2022-09-26T04:29:09.021Z,5.46
2022-09-26T04:31:51.879Z,5.49
2022-09-26T04:34:27.269Z,5.30
2022-09-26T04:36:54.402Z,5.46
2022-09-26T04:39:20.987Z,5.50
2022-09-26T04:41:47.988Z,5.39
2022-09-26T04:44:15.135Z,5.35
2022-09-26T04:46:41.899Z,5.36
2022-09-26T04:49:09.401Z,5.43
2022-09-26T04:51:36.975Z,5.46
2022-09-26T04:54:04.313Z,5.46
2022-09-26T04:56:36.277Z,5.41
2022-09-26T04:59:05.334Z,5.41
2022-09-26T05:01:41.648Z,5.35
2022-09-26T05:04:13.649Z,5.35
2022-09-26T05:06:41.404Z,5.36
2022-09-26T05:09:14.238Z,5.45
2022-09-26T05:11:47.595Z,5.29
2022-09-26T05:14:14.565Z,5.40
2022-09-26T05:16:41.345Z,5.46
2022-09-26T05:19:12.008Z,5.48
2022-09-26T05:21:46.394Z,5.57
2022-09-26T05:24:31.498Z,5.60
2022-09-26T05:26:59.667Z,5.60
2022-09-26T05:29:26.221Z,5.55
2022-09-26T05:32:01.288Z,5.56
2022-09-26T05:34:31.928Z,5.60
2022-09-26T05:36:59.299Z,5.61
2022-09-26T05:39:44.424Z,5.63
2022-09-26T05:42:12.463Z,5.64
2022-09-26T05:44:39.608Z,5.89
2022-09-26T05:47:07.217Z,6.16
2022-09-26T05:49:36.069Z,6.35
2022-09-26T05:52:03.910Z,6.44
2022-09-26T05:54:31.047Z,6.35
2022-09-26T05:56:58.653Z,6.27
2022-09-26T05:59:46.670Z,6.15
2022-09-26T06:02:33.445Z,6.04
2022-09-26T06:05:12.679Z,6.12
2022-09-26T06:07:59.557Z,5.93
2022-09-26T06:10:51.993Z,5.97
2022-09-26T06:13:21.806Z,6.00
2022-09-26T06:15:49.902Z,6.04
2022-09-26T06:18:16.468Z,6.06
2022-09-26T06:20:43.127Z,6.26
2022-09-26T06:23:10.818Z,6.76
2022-09-26T06:25:38.326Z,7.28
2022-09-26T06:28:06.025Z,7.87
2022-09-26T06:30:35.397Z,8.47
2022-09-26T06:33:11.531Z,9.00
2022-09-26T06:36:03.641Z,9.51
2022-09-26T06:38:34.400Z,9.81
2022-09-26T06:41:02.090Z,10.16
2022-09-26T06:43:29.338Z,10.43
2022-09-26T06:46:20.470Z,10.90
2022-09-26T06:48:57.761Z,11.14
2022-09-26T06:51:41.850Z,11.45
2022-09-26T06:54:09.800Z,11.86
2022-09-26T06:56:36.157Z,12.10
2022-09-26T06:59:03.826Z,12.35
2022-09-26T07:01:33.284Z,12.52
2022-09-26T07:04:09.537Z,12.80
2022-09-26T07:06:45.774Z,13.07
2022-09-26T07:09:12.981Z,13.28
2022-09-26T07:12:13.988Z,13.42
2022-09-26T07:14:37.819Z,13.61
2022-09-26T07:17:18.062Z,13.90
2022-09-26T07:19:57.244Z,13.95
2022-09-26T07:22:46.277Z,14.15
2022-09-26T07:25:13.947Z,14.30
2022-09-26T07:27:40.827Z,14.41
2022-09-26T07:30:09.066Z,14.45
2022-09-26T07:32:47.800Z,14.60
2022-09-26T07:35:34.146Z,14.71
2022-09-26T07:38:01.114Z,14.81
2022-09-26T07:40:28.503Z,14.98
2022-09-26T07:43:18.525Z,14.66
2022-09-26T07:46:05.481Z,14.28
2022-09-26T07:48:50.680Z,14.12
2022-09-26T07:51:36.910Z,13.82
2022-09-26T07:54:06.250Z,13.46
2022-09-26T07:57:10.822Z,13.13
2022-09-26T07:59:57.586Z,12.97
2022-09-26T08:02:45.166Z,12.84
2022-09-26T08:05:20.350Z,12.82
2022-09-26T08:07:48.730Z,12.63
2022-09-26T08:10:35.040Z,12.53
2022-09-26T08:13:20.737Z,12.51
2022-09-26T08:16:06.229Z,12.41
2022-09-26T08:18:37.861Z,12.50
2022-09-26T08:21:05.683Z,12.69
2022-09-26T08:23:33.362Z,12.58
2022-09-26T08:26:23.819Z,12.74
2022-09-26T08:28:59.888Z,12.77
2022-09-26T08:31:26.679Z,12.64
2022-09-26T08:33:56.669Z,12.51
2022-09-26T08:36:23.153Z,12.54
2022-09-26T08:39:13.803Z,12.49
2022-09-26T08:42:40.686Z,12.51
2022-09-26T08:46:11.916Z,12.55
2022-09-26T08:49:21.471Z,12.56
2022-09-26T08:51:51.901Z,12.95
2022-09-26T08:54:33.193Z,13.18
2022-09-26T08:57:05.854Z,13.16
2022-09-26T08:59:42.006Z,13.08
2022-09-26T09:02:39.397Z,13.17
2022-09-26T09:05:19.749Z,13.10
2022-09-26T09:07:50.177Z,13.08
2022-09-26T09:10:21.607Z,13.08
2022-09-26T09:13:05.966Z,12.94
2022-09-26T09:16:18.381Z,12.83
2022-09-26T09:19:36.262Z,12.72
2022-09-26T09:22:40.560Z,12.65
2022-09-26T09:25:28.045Z,12.98
2022-09-26T09:28:19.925Z,13.29
2022-09-26T09:31:06.347Z,13.77
2022-09-26T09:34:00.335Z,13.93
2022-09-26T09:36:50.258Z,14.22
2022-09-26T09:39:33.905Z,14.25
2022-09-26T09:42:12.046Z,13.80
2022-09-26T09:44:47.263Z,13.63
2022-09-26T09:47:16.547Z,13.70
2022-09-26T09:49:44.670Z,13.88
2022-09-26T09:52:26.371Z,14.00
2022-09-26T09:55:19.708Z,14.10
2022-09-26T09:57:54.054Z,13.98
2022-09-26T10:00:22.555Z,13.94
2022-09-26T10:03:26.558Z,14.01
2022-09-26T10:06:00.613Z,13.86
2022-09-26T10:08:42.206Z,13.77
2022-09-26T10:11:34.307Z,13.63
2022-09-26T10:14:29.488Z,13.44
2022-09-26T10:17:11.466Z,13.47
2022-09-26T10:19:45.058Z,13.30
2022-09-26T10:22:19.059Z,13.28
2022-09-26T10:24:47.753Z,13.30
2022-09-26T10:27:37.813Z,13.08
2022-09-26T10:30:19.861Z,13.04
2022-09-26T10:32:56.399Z,13.07
2022-09-26T10:35:44.296Z,13.06
2022-09-26T10:38:27.813Z,13.17
2022-09-26T10:41:03.349Z,13.20
2022-09-26T10:43:35.563Z,12.96
2022-09-26T10:46:20.759Z,13.15
2022-09-26T10:49:12.954Z,13.27
2022-09-26T10:52:19.666Z,13.25
2022-09-26T10:55:04.140Z,13.34
2022-09-26T10:57:51.774Z,13.17
2022-09-26T11:00:42.614Z,13.29
2022-09-26T11:03:43.180Z,13.23
2022-09-26T11:06:29.225Z,13.19
2022-09-26T11:09:05.060Z,13.30
2022-09-26T11:11:51.110Z,13.37
2022-09-26T11:14:30.337Z,13.39
2022-09-26T11:17:08.810Z,13.32
2022-09-26T11:19:45.697Z,13.39
2022-09-26T11:22:45.238Z,13.54
2022-09-26T11:25:24.048Z,13.45
2022-09-26T11:28:08.556Z,13.55
2022-09-26T11:31:24.856Z,13.61
2022-09-26T11:34:16.967Z,13.59
2022-09-26T11:37:17.906Z,13.35
2022-09-26T11:39:58.574Z,13.15
2022-09-26T11:42:43.998Z,13.23
2022-09-26T11:45:27.237Z,12.94
2022-09-26T11:48:21.368Z,12.99
2022-09-26T11:51:24.506Z,12.98
2022-09-26T11:54:00.827Z,13.05
2022-09-26T11:56:39.557Z,13.16
2022-09-26T11:59:24.115Z,13.07
2022-09-26T12:02:18.386Z,12.94
2022-09-26T12:05:03.772Z,12.86
2022-09-26T12:08:15.158Z,12.63
2022-09-26T12:10:50.519Z,12.51
2022-09-26T12:13:48.252Z,12.28
2022-09-26T12:16:52.916Z,12.24
2022-09-26T12:19:40.043Z,12.23
2022-09-26T12:22:29.034Z,12.26
2022-09-26T12:25:22.759Z,12.37
2022-09-26T12:28:16.764Z,12.39
2022-09-26T12:31:09.741Z,12.47
2022-09-26T12:33:51.024Z,12.49
2022-09-26T12:36:31.207Z,12.31
2022-09-26T12:39:28.845Z,12.36
2022-09-26T12:41:55.174Z,12.22
2022-09-26T12:44:37.526Z,12.39
2022-09-26T12:47:22.039Z,12.38
2022-09-26T12:50:00.613Z,12.30
2022-09-26T12:52:32.937Z,12.33
2022-09-26T12:55:29.654Z,12.58
2022-09-26T12:58:24.935Z,12.83
2022-09-26T13:01:05.024Z,12.99
2022-09-26T13:03:58.827Z,12.91
2022-09-26T13:06:49.026Z,13.00
2022-09-26T13:09:57.168Z,13.08
2022-09-26T13:13:02.595Z,13.15
2022-09-26T13:15:35.620Z,13.14
2022-09-26T13:18:37.489Z,13.11
2022-09-26T13:21:12.582Z,13.13
2022-09-26T13:23:48.582Z,13.08
2022-09-26T13:26:19.575Z,12.98
2022-09-26T13:29:17.172Z,12.69
2022-09-26T13:31:55.328Z,12.35
2022-09-26T13:34:28.120Z,12.24
2022-09-26T13:36:57.411Z,12.29
2022-09-26T13:39:26.962Z,12.29
2022-09-26T13:42:02.824Z,12.05
2022-09-26T13:44:57.378Z,12.23
2022-09-26T13:47:33.366Z,12.28
2022-09-26T13:50:22.235Z,12.15
2022-09-26T13:53:10.941Z,11.84
2022-09-26T13:55:37.391Z,12.33
2022-09-26T13:58:21.091Z,12.36
2022-09-26T14:00:54.850Z,12.30
2022-09-26T14:03:23.088Z,12.19
2022-09-26T14:05:51.504Z,12.03
2022-09-26T14:08:43.005Z,12.04
2022-09-26T14:11:19.810Z,12.17
2022-09-26T14:13:47.641Z,12.01
2022-09-26T14:16:34.873Z,12.02
2022-09-26T14:19:10.938Z,12.05
2022-09-26T14:22:00.542Z,11.98
2022-09-26T14:24:37.859Z,11.95
2022-09-26T14:27:10.192Z,12.08
2022-09-26T14:29:39.416Z,12.22
2022-09-26T14:32:10.184Z,12.27
2022-09-26T14:34:55.298Z,12.27
2022-09-26T14:37:24.668Z,12.19
2022-09-26T14:40:00.527Z,12.23
2022-09-26T14:42:36.336Z,12.19
2022-09-26T14:45:06.468Z,12.04
2022-09-26T14:47:52.761Z,12.00
2022-09-26T14:50:25.473Z,11.96
2022-09-26T14:53:01.968Z,12.07
2022-09-26T14:55:31.292Z,12.13
2022-09-26T14:58:46.349Z,12.06
2022-09-26T15:01:17.934Z,12.11
2022-09-26T15:03:54.736Z,12.15
2022-09-26T15:06:22.687Z,11.99
2022-09-26T15:08:49.547Z,11.98
2022-09-26T15:11:45.032Z,11.99
2022-09-26T15:14:21.784Z,12.02
2022-09-26T15:16:53.211Z,11.85
2022-09-26T15:19:42.689Z,11.69
2022-09-26T15:22:16.286Z,11.86
2022-09-26T15:24:42.887Z,11.81
2022-09-26T15:27:19.286Z,11.60
2022-09-26T15:29:51.537Z,11.60
2022-09-26T15:32:29.552Z,11.51
2022-09-26T15:34:57.326Z,11.45
2022-09-26T15:37:32.592Z,11.43
2022-09-26T15:40:19.483Z,11.47
2022-09-26T15:42:58.949Z,11.39
2022-09-26T15:45:33.225Z,11.34
2022-09-26T15:48:05.330Z,11.42
2022-09-26T15:50:39.615Z,11.40
2022-09-26T15:53:27.530Z,11.35
2022-09-26T15:56:05.969Z,11.38
2022-09-26T15:58:40.200Z,11.42
2022-09-26T16:01:08.392Z,11.33
2022-09-26T16:03:55.254Z,11.33
2022-09-26T16:06:29.907Z,11.17
2022-09-26T16:09:19.485Z,11.16
2022-09-26T16:11:50.123Z,11.24
2022-09-26T16:14:25.556Z,11.11
2022-09-26T16:17:01.098Z,11.22
2022-09-26T16:19:35.590Z,11.14
2022-09-26T16:22:39.139Z,11.20
2022-09-26T16:25:25.798Z,10.88
2022-09-26T16:28:00.743Z,11.06
2022-09-26T16:30:27.125Z,11.10
2022-09-26T16:33:16.263Z,11.02
2022-09-26T16:35:47.736Z,11.09
2022-09-26T16:38:27.950Z,11.05
2022-09-26T16:40:56.765Z,10.99
2022-09-26T16:43:29.328Z,10.98
2022-09-26T16:46:13.369Z,10.78
2022-09-26T16:48:51.844Z,10.91
2022-09-26T16:51:21.257Z,10.96
2022-09-26T16:54:07.958Z,10.96
2022-09-26T16:56:38.834Z,10.89
2022-09-26T16:59:14.061Z,10.80
2022-09-26T17:01:55.665Z,10.84
2022-09-26T17:04:28.855Z,10.84
2022-09-26T17:06:55.353Z,10.84
2022-09-26T17:09:27.948Z,10.84
2022-09-26T17:11:57.015Z,10.80
2022-09-26T17:14:28.500Z,10.83
2022-09-26T17:16:57.333Z,10.66
2022-09-26T17:19:27.017Z,10.42
2022-09-26T17:21:54.851Z,10.53
2022-09-26T17:24:24.025Z,10.75
2022-09-26T17:26:59.406Z,10.80
2022-09-26T17:29:30.322Z,10.74
2022-09-26T17:31:57.975Z,10.72
2022-09-26T17:34:27.991Z,10.63
2022-09-26T17:36:58.107Z,10.39
2022-09-26T17:39:27.500Z,10.44
2022-09-26T17:41:57.138Z,10.46
2022-09-26T17:44:23.632Z,10.30
2022-09-26T17:46:53.882Z,10.29
2022-09-26T17:49:27.466Z,10.11
2022-09-26T17:51:57.074Z,10.15
2022-09-26T17:54:30.151Z,9.62
2022-09-26T17:56:56.963Z,10.09
2022-09-26T17:59:25.633Z,10.10
2022-09-26T18:01:56.435Z,10.19
2022-09-26T18:04:26.877Z,10.12
2022-09-26T18:06:55.986Z,10.12
2022-09-26T18:09:23.292Z,9.98
2022-09-26T18:12:00.543Z,9.99
2022-09-26T18:14:31.152Z,9.96
2022-09-26T18:16:58.796Z,9.84
2022-09-26T18:19:25.369Z,9.79
2022-09-26T18:21:55.566Z,9.85
2022-09-26T18:24:26.551Z,9.76
2022-09-26T18:26:56.925Z,9.47
2022-09-26T18:29:31.956Z,9.50
2022-09-26T18:31:59.586Z,9.49
2022-09-26T18:34:25.947Z,9.29
2022-09-26T18:36:56.797Z,9.42
2022-09-26T18:39:25.010Z,9.54
2022-09-26T18:41:58.814Z,9.37
2022-09-26T18:44:26.156Z,9.35
2022-09-26T18:46:58.234Z,9.40
2022-09-26T18:49:30.179Z,9.43
2022-09-26T18:51:56.877Z,9.41
2022-09-26T18:54:24.613Z,9.32
2022-09-26T18:57:09.835Z,9.13
2022-09-26T18:59:36.272Z,9.17
2022-09-26T19:02:04.805Z,9.06
2022-09-26T19:04:31.622Z,8.95
2022-09-26T19:07:04.729Z,8.82
2022-09-26T19:09:33.749Z,8.70
2022-09-26T19:12:01.306Z,8.55
2022-09-26T19:14:29.803Z,8.68
2022-09-26T19:16:56.917Z,8.58
2022-09-26T19:19:24.417Z,8.59
2022-09-26T19:21:58.129Z,8.50
2022-09-26T19:24:39.886Z,8.37
2022-09-26T19:27:26.978Z,8.29
2022-09-26T19:30:04.784Z,8.47
2022-09-26T19:32:37.675Z,8.34
2022-09-26T19:35:32.047Z,8.45
2022-09-26T19:37:59.766Z,8.21
2022-09-26T19:40:27.335Z,8.31
2022-09-26T19:42:55.032Z,8.21
2022-09-26T19:45:22.117Z,8.30
2022-09-26T19:47:53.273Z,8.29
2022-09-26T19:50:25.762Z,8.30
2022-09-26T19:52:54.976Z,8.14
2022-09-26T19:55:24.338Z,8.07
2022-09-26T19:57:52.705Z,8.10
2022-09-26T20:00:20.037Z,8.11
2022-09-26T20:02:50.048Z,8.17
2022-09-26T20:05:25.286Z,8.11
2022-09-26T20:07:52.507Z,7.85
2022-09-26T20:10:24.969Z,8.14
2022-09-26T20:12:51.816Z,8.16
2022-09-26T20:15:22.591Z,8.12
2022-09-26T20:17:49.592Z,8.08
2022-09-26T20:20:22.797Z,7.84
2022-09-26T20:22:51.584Z,7.85
2022-09-26T20:25:30.003Z,7.85
2022-09-26T20:27:57.791Z,7.91
2022-09-26T20:30:43.629Z,7.73
2022-09-26T20:33:12.887Z,7.88
2022-09-26T20:35:43.092Z,7.87
2022-09-26T20:38:31.955Z,7.89
2022-09-26T20:41:12.088Z,8.00
2022-09-26T20:43:39.603Z,7.93
2022-09-26T20:46:09.451Z,7.94
2022-09-26T20:48:37.043Z,7.88
2022-09-26T20:51:12.401Z,7.87
2022-09-26T20:53:38.799Z,7.87
2022-09-26T20:56:16.784Z,7.94
2022-09-26T20:58:44.215Z,8.08
2022-09-26T21:01:15.424Z,8.10
2022-09-26T21:03:49.144Z,8.10
2022-09-26T21:06:21.157Z,8.10
2022-09-26T21:08:48.475Z,8.02
2022-09-26T21:11:21.754Z,7.80
2022-09-26T21:13:48.766Z,7.99
2022-09-26T21:16:18.229Z,8.19
2022-09-26T21:18:47.263Z,8.09
2022-09-26T21:21:17.850Z,7.83
2022-09-26T21:23:53.652Z,8.11
2022-09-26T21:26:22.276Z,8.18
2022-09-26T21:28:50.091Z,8.00
2022-09-26T21:31:29.545Z,7.91
2022-09-26T21:33:58.278Z,8.09
2022-09-26T21:36:32.683Z,8.05
2022-09-26T21:39:01.654Z,8.14
2022-09-26T21:41:29.279Z,7.90
2022-09-26T21:44:00.407Z,8.12
2022-09-26T21:46:27.586Z,8.18
2022-09-26T21:48:55.256Z,8.15
2022-09-26T21:51:25.359Z,8.10
2022-09-26T21:53:57.539Z,8.19
2022-09-26T21:56:29.175Z,8.20
2022-09-26T21:58:56.764Z,8.21
2022-09-26T22:01:23.930Z,8.21
2022-09-26T22:03:50.351Z,8.19
2022-09-26T22:06:16.765Z,8.16
2022-09-26T22:08:43.283Z,8.12
2022-09-26T22:11:09.869Z,8.18
2022-09-26T22:13:37.278Z,8.07
2022-09-26T22:16:12.872Z,8.10
2022-09-26T22:18:40.265Z,8.05
2022-09-26T22:21:09.098Z,8.04
2022-09-26T22:23:36.359Z,8.14
2022-09-26T22:26:03.407Z,8.19
2022-09-26T22:28:30.519Z,8.16
2022-09-26T22:31:01.769Z,8.13
2022-09-26T22:33:28.311Z,8.30
2022-09-26T22:35:54.686Z,8.20
2022-09-26T22:38:21.277Z,8.33
2022-09-26T22:41:03.061Z,8.37
2022-09-26T22:43:30.815Z,8.31
2022-09-26T22:46:01.297Z,8.34
2022-09-26T22:48:32.260Z,8.40
2022-09-26T22:50:58.798Z,8.24
2022-09-26T22:53:25.385Z,8.41
2022-09-26T22:55:54.671Z,8.42
2022-09-26T22:58:25.910Z,8.41
2022-09-26T23:00:52.385Z,8.31
2022-09-26T23:03:18.946Z,8.51
2022-09-26T23:05:50.135Z,8.44
2022-09-26T23:08:16.593Z,8.37
2022-09-26T23:10:50.317Z,8.42
2022-09-26T23:13:17.905Z,8.38
2022-09-26T23:15:45.145Z,8.32
2022-09-26T23:18:12.395Z,8.41
2022-09-26T23:20:43.322Z,8.27
2022-09-26T23:23:11.850Z,8.39
2022-09-26T23:25:46.115Z,8.42
2022-09-26T23:28:12.621Z,8.55
2022-09-26T23:30:39.382Z,8.63
2022-09-26T23:33:05.819Z,8.65
2022-09-26T23:35:32.193Z,8.56
2022-09-26T23:37:58.818Z,8.33
2022-09-26T23:40:25.374Z,8.53
2022-09-26T23:42:51.810Z,8.71
2022-09-26T23:45:18.267Z,8.70
2022-09-26T23:47:44.648Z,8.72
2022-09-26T23:50:11.103Z,8.83
2022-09-26T23:52:37.542Z,8.82
2022-09-26T23:55:04.339Z,8.84
2022-09-26T23:57:30.804Z,8.72
2022-09-26T23:59:57.220Z,8.77
